Time;durP1;ratioP1;P1;durP2;ratioP2;P2;SDS_P1;SDS_P2;PMS_P1;PMS_P2;Temp;Humidity;BMP_temperature;BMP_pressure;BME280_temperature;BME280_humidity;BME280_pressure;Samples;Min_cycle;Max_cycle;Signal;HPM_P1;HPM_P2
2022/01/26 00:08:12;;;;;;;11.87;6.83;;;;;;;9.11;97.58;102258.78;4853154;29;20513;-84
2022/01/26 00:10:40;;;;;;;14.00;6.97;;;;;;;9.06;97.41;102252.91;4848444;29;20865;-84
2022/01/26 00:13:08;;;;;;;14.23;6.80;;;;;;;8.90;97.22;102223.53;4848483;29;20455;-84
2022/01/26 00:15:36;;;;;;;16.90;7.67;;;;;;;9.02;97.56;102252.38;4847963;29;20498;-84
2022/01/26 00:18:04;;;;;;;15.20;7.70;;;;;;;8.95;97.94;102246.63;4848141;29;20985;-84
2022/01/26 00:20:42;;;;;;;16.57;8.40;;;;;;;8.97;97.72;102247.34;4833012;29;20458;-84
2022/01/26 00:23:49;;;;;;;17.77;8.10;;;;;;;8.94;97.45;102246.78;4835531;29;20478;-83
2022/01/26 00:29:11;;;;;;;17.50;7.77;;;;;;;8.84;96.80;102246.81;4852610;29;20454;-81
2022/01/26 00:40:33;;;;;;;20.40;7.47;;;;;;;8.73;97.55;102243.38;4862485;29;20515;-84
2022/01/26 00:43:14;;;;;;;14.10;6.93;;;;;;;8.73;97.89;102244.22;4879028;29;20455;-85
2022/01/26 00:45:42;;;;;;;21.47;8.90;;;;;;;8.75;97.74;102242.22;4865602;29;20498;-84
2022/01/26 00:48:10;;;;;;;23.73;9.87;;;;;;;8.76;97.73;102226.72;4848123;29;20458;-83
2022/01/26 00:50:39;;;;;;;24.30;10.83;;;;;;;8.70;97.40;102219.97;4879044;29;21233;-84
2022/01/26 00:53:06;;;;;;;25.47;11.10;;;;;;;8.64;97.54;102223.31;4863246;29;20450;-84
2022/01/26 00:55:34;;;;;;;26.37;11.47;;;;;;;8.61;97.24;102218.16;4848165;29;20501;-84
2022/01/26 00:58:02;;;;;;;32.27;11.90;;;;;;;8.68;97.45;102219.25;4847972;29;20454;-83
2022/01/26 01:00:29;;;;;;;33.70;13.73;;;;;;;8.65;97.32;102228.63;4863475;29;20546;-84
2022/01/26 01:02:58;;;;;;;40.33;13.30;;;;;;;8.62;97.15;102225.31;4848439;29;20466;-84
2022/01/26 01:05:33;;;;;;;31.03;11.03;;;;;;;8.57;97.59;102219.44;4848816;29;20545;-83
2022/01/26 01:08:07;;;;;;;35.30;13.13;;;;;;;8.55;97.68;102224.16;4864099;29;20450;-85
2022/01/26 01:10:35;;;;;;;33.93;13.40;;;;;;;8.53;97.77;102228.88;4863835;29;20446;-84
2022/01/26 01:13:07;;;;;;;39.60;12.77;;;;;;;8.47;97.53;102226.72;4848062;29;20457;-84
2022/01/26 01:15:36;;;;;;;42.83;13.60;;;;;;;8.41;97.57;102228.19;4863645;29;20506;-84
2022/01/26 01:18:13;;;;;;;32.50;11.60;;;;;;;8.29;97.62;102213.78;4878492;29;20966;-84
2022/01/26 01:28:20;;;;;;;26.43;7.70;;;;;;;8.36;97.75;102221.44;4862863;29;20893;-84
2022/01/26 01:30:54;;;;;;;17.83;6.13;;;;;;;8.19;97.55;102199.34;4878659;29;20550;-85
2022/01/26 01:33:52;;;;;;;10.33;5.13;;;;;;;8.32;97.73;102226.31;4808189;29;20434;-84
2022/01/26 01:36:44;;;;;;;16.30;5.83;;;;;;;8.28;97.23;102228.41;4809000;29;20498;-84
2022/01/26 01:39:49;;;;;;;13.00;6.30;;;;;;;8.25;98.05;102217.84;4795343;29;20461;-85
2022/01/26 01:42:17;;;;;;;13.60;6.43;;;;;;;8.22;98.17;102223.56;4825112;29;20441;-83
2022/01/26 01:44:44;;;;;;;16.70;6.43;;;;;;;8.21;97.79;102232.72;4813278;29;20435;-84
2022/01/26 01:47:12;;;;;;;8.20;4.83;;;;;;;8.18;98.34;102223.97;4817781;29;20454;-84
2022/01/26 01:49:39;;;;;;;10.27;5.40;;;;;;;8.17;98.54;102217.66;4816034;29;20542;-85
2022/01/26 01:52:13;;;;;;;13.63;5.90;;;;;;;8.20;98.10;102222.84;4846312;29;20458;-84
2022/01/26 01:54:44;;;;;;;11.53;5.73;;;;;;;8.06;97.86;102206.06;4850017;29;20577;-84
2022/01/26 01:57:12;;;;;;;13.30;6.90;;;;;;;8.14;98.33;102212.50;4849009;29;20450;-84
2022/01/26 01:59:39;;;;;;;7.33;4.60;;;;;;;8.12;98.17;102217.22;4863057;29;20458;-84
2022/01/26 02:02:07;;;;;;;9.60;5.30;;;;;;;8.07;98.05;102214.09;4863375;29;20453;-85
2022/01/26 02:04:36;;;;;;;9.23;5.30;;;;;;;8.10;97.71;102213.78;4865724;29;20466;-84
2022/01/26 02:07:04;;;;;;;9.07;5.40;;;;;;;8.00;97.72;102202.03;4877361;29;20466;-84
2022/01/26 02:09:31;;;;;;;7.70;4.20;;;;;;;8.03;98.15;102212.66;4847541;29;20457;-84
2022/01/26 02:12:02;;;;;;;10.03;5.80;;;;;;;7.96;97.58;102203.31;4847385;29;20455;-84
2022/01/26 02:14:37;;;;;;;13.83;6.87;;;;;;;8.01;97.59;102209.22;4863127;29;20479;-84
2022/01/26 02:17:21;;;;;;;13.33;6.60;;;;;;;7.96;97.49;102217.78;4863191;29;20524;-84
2022/01/26 02:50:30;;;;;;;8.90;5.67;;;;;;;7.91;98.62;102191.97;4868168;29;20460;-85
2022/01/26 02:55:47;;;;;;;8.40;4.80;;;;;;;7.92;98.92;102188.25;4868330;29;20494;-84
2022/01/26 03:04:09;;;;;;;8.67;4.70;;;;;;;7.89;98.82;102194.84;4866802;29;20497;-84
2022/01/26 03:06:38;;;;;;;6.53;4.23;;;;;;;7.86;98.65;102183.41;4896139;29;20477;-84
2022/01/26 03:09:11;;;;;;;6.27;3.80;;;;;;;7.88;99.38;102193.16;4917113;29;20441;-85
2022/01/26 03:11:42;;;;;;;9.73;4.30;;;;;;;7.94;99.48;102192.56;4887298;29;20932;-84
2022/01/26 03:16:50;;;;;;;7.00;3.77;;;;;;;7.99;99.24;102189.44;4916920;29;20475;-84
2022/01/26 03:19:23;;;;;;;7.50;4.07;;;;;;;7.95;99.41;102183.41;4887654;29;20481;-85
2022/01/26 03:30:27;;;;;;;10.30;4.63;;;;;;;8.10;99.91;102180.25;4903593;29;20516;-85
2022/01/26 03:35:41;;;;;;;5.70;4.00;;;;;;;8.14;100.00;102173.53;4901314;29;20495;-85
2022/01/26 03:38:17;;;;;;;18.10;4.70;;;;;;;8.12;100.00;102168.22;4903714;29;20493;-85
2022/01/26 03:40:46;;;;;;;7.80;3.70;;;;;;;8.16;100.00;102171.53;4917354;29;20448;-84
2022/01/26 03:43:14;;;;;;;7.47;4.17;;;;;;;8.06;100.00;102141.59;4901383;29;20437;-84
2022/01/26 03:45:41;;;;;;;8.20;3.93;;;;;;;8.16;100.00;102157.91;4901635;29;20444;-85
2022/01/26 03:48:09;;;;;;;6.80;4.00;;;;;;;8.16;100.00;102161.50;4901146;29;20441;-84
2022/01/26 03:50:36;;;;;;;7.10;4.53;;;;;;;8.20;100.00;102165.66;4900927;29;20445;-85
2022/01/26 03:53:06;;;;;;;4.80;3.80;;;;;;;8.21;100.00;102156.47;4916669;29;20437;-85
2022/01/26 03:55:34;;;;;;;12.67;5.43;;;;;;;8.26;100.00;102161.50;4885916;29;20484;-84
2022/01/26 03:58:02;;;;;;;10.20;4.67;;;;;;;8.30;100.00;102155.59;4877972;29;20532;-84
2022/01/26 04:00:30;;;;;;;7.67;3.80;;;;;;;8.32;100.00;102145.44;4899993;29;20449;-85
2022/01/26 04:02:58;;;;;;;7.67;4.80;;;;;;;8.32;100.00;102137.28;4901129;29;20437;-85
2022/01/26 04:05:28;;;;;;;10.03;4.67;;;;;;;8.37;100.00;102141.44;4889788;29;20999;-84
2022/01/26 04:08:02;;;;;;;9.70;4.37;;;;;;;8.37;100.00;102139.56;4883088;29;20485;-84
2022/01/26 04:10:47;;;;;;;5.60;3.90;;;;;;;8.40;100.00;102138.44;4883579;29;20537;-85
2022/01/26 04:13:15;;;;;;;10.17;4.60;;;;;;;8.38;100.00;102132.28;4885555;29;20802;-85
2022/01/26 04:15:42;;;;;;;10.00;4.00;;;;;;;8.40;100.00;102127.53;4878863;29;20557;-85
2022/01/26 04:18:15;;;;;;;7.97;3.80;;;;;;;8.46;100.00;102132.41;4879334;29;20454;-85
2022/01/26 04:20:47;;;;;;;5.80;4.13;;;;;;;8.43;100.00;102127.25;4879048;29;20816;-87
2022/01/26 04:24:05;;;;;;;11.30;3.60;;;;;;;8.47;100.00;102126.78;4865237;29;20443;-84
2022/01/26 04:26:03;;;;;;;8.73;4.17;;;;;;;8.47;100.00;102120.47;4860447;29;20953;-84
2022/01/26 04:28:39;;;;;;;7.33;3.60;;;;;;;8.48;100.00;102120.34;4864314;29;20535;-85
2022/01/26 04:31:09;;;;;;;6.50;3.60;;;;;;;8.48;100.00;102116.75;4879708;29;20486;-84
2022/01/26 04:33:37;;;;;;;7.60;3.60;;;;;;;8.44;100.00;102113.50;4879700;29;20506;-84
2022/01/26 04:36:09;;;;;;;6.23;3.80;;;;;;;8.44;100.00;102108.03;4894527;29;20498;-84
2022/01/26 04:38:45;;;;;;;5.83;3.70;;;;;;;8.42;100.00;102109.19;4895567;29;20556;-84
2022/01/26 04:43:51;;;;;;;6.53;3.33;;;;;;;8.36;100.00;102105.16;4881056;29;20483;-85
2022/01/26 04:46:19;;;;;;;6.13;3.40;;;;;;;8.30;100.00;102094.81;4879114;29;20949;-84
2022/01/26 04:48:47;;;;;;;4.90;3.97;;;;;;;8.29;100.00;102099.41;4855963;29;20454;-84
2022/01/26 04:51:15;;;;;;;5.00;3.80;;;;;;;8.25;100.00;102097.13;4863869;29;20446;-84
2022/01/26 04:53:44;;;;;;;6.93;3.20;;;;;;;8.22;100.00;102092.84;4865440;29;20938;-84
2022/01/26 04:56:13;;;;;;;9.77;3.10;;;;;;;8.19;100.00;102095.00;4896859;29;20497;-84
2022/01/26 04:58:41;;;;;;;5.17;2.77;;;;;;;8.13;100.00;102077.34;4881723;29;20458;-84
2022/01/26 05:01:09;;;;;;;5.97;3.47;;;;;;;8.13;100.00;102071.91;4881993;29;20450;-84
2022/01/26 05:03:37;;;;;;;4.90;3.53;;;;;;;8.18;100.00;102076.94;4863482;29;20949;-84
2022/01/26 05:06:04;;;;;;;6.63;4.57;;;;;;;8.20;100.00;102073.06;4865983;29;22216;-84
2022/01/26 05:08:32;;;;;;;5.00;3.03;;;;;;;8.17;100.00;102065.19;4866157;29;20445;-84
2022/01/26 05:11:01;;;;;;;4.67;2.83;;;;;;;8.14;100.00;102062.75;4881900;29;20955;-84
2022/01/26 05:13:48;;;;;;;6.00;2.70;;;;;;;8.12;100.00;102053.00;4871735;29;20870;-84
2022/01/26 05:16:17;;;;;;;6.10;3.00;;;;;;;8.01;100.00;102040.41;4875880;29;20502;-84
2022/01/26 05:18:45;;;;;;;5.53;3.20;;;;;;;8.10;100.00;102066.75;4895135;29;20450;-85
2022/01/26 05:21:12;;;;;;;4.60;3.20;;;;;;;8.13;100.00;102069.19;4866674;29;20441;-84
2022/01/26 05:23:40;;;;;;;4.10;3.03;;;;;;;8.10;100.00;102066.75;4866187;29;20949;-84
2022/01/26 05:26:08;;;;;;;6.30;2.80;;;;;;;8.07;100.00;102058.03;4898110;29;20449;-84
2022/01/26 05:28:36;;;;;;;5.17;2.73;;;;;;;8.06;100.00;102064.50;4881899;29;20537;-84
2022/01/26 05:31:03;;;;;;;4.80;2.43;;;;;;;7.96;100.00;102053.59;4862513;29;20483;-84
2022/01/26 05:33:31;;;;;;;5.40;2.50;;;;;;;8.04;100.00;102063.78;4871698;29;20831;-85
2022/01/26 05:36:04;;;;;;;6.27;3.33;;;;;;;7.97;100.00;102050.72;4878238;29;20546;-84
2022/01/26 05:38:32;;;;;;;8.53;3.70;;;;;;;8.04;100.00;102066.50;4878743;29;20439;-85
2022/01/26 05:41:02;;;;;;;6.73;3.47;;;;;;;7.99;100.00;102056.03;4878264;29;20454;-84
2022/01/26 05:43:29;;;;;;;3.07;2.10;;;;;;;7.99;100.00;102058.75;4878405;29;20453;-85
2022/01/26 05:46:02;;;;;;;5.73;2.13;;;;;;;7.87;100.00;102039.00;4866061;29;20450;-84
2022/01/26 05:48:30;;;;;;;3.37;2.23;;;;;;;8.00;100.00;102057.75;4888817;29;20469;-84
2022/01/26 05:51:05;;;;;;;6.40;2.93;;;;;;;8.01;100.00;102067.63;4881586;29;20466;-84
2022/01/26 05:53:34;;;;;;;4.53;2.80;;;;;;;7.96;100.00;102051.72;4882266;29;20453;-84
2022/01/26 05:56:05;;;;;;;15.13;3.13;;;;;;;8.06;100.00;102065.34;4881995;29;20481;-84
2022/01/26 05:58:32;;;;;;;9.07;3.13;;;;;;;8.04;100.00;102059.19;4869638;29;20532;-84
2022/01/26 06:01:00;;;;;;;3.30;2.30;;;;;;;8.07;100.00;102067.06;4900557;29;20457;-84
2022/01/26 06:03:29;;;;;;;5.60;2.37;;;;;;;8.05;100.00;102063.63;4885286;29;20980;-83
2022/01/26 06:05:58;;;;;;;5.73;2.53;;;;;;;8.09;100.00;102065.03;4885306;29;20450;-84
2022/01/26 06:08:26;;;;;;;3.17;2.00;;;;;;;8.05;100.00;102063.63;4869725;29;20465;-86
2022/01/26 06:10:58;;;;;;;6.07;2.60;;;;;;;8.08;100.00;102073.38;4866591;29;20533;-84
2022/01/26 06:13:25;;;;;;;6.87;3.03;;;;;;;8.08;100.00;102068.75;4881853;29;20470;-84
2022/01/26 06:15:53;;;;;;;19.90;3.97;;;;;;;8.10;100.00;102068.63;4866457;29;20916;-84
2022/01/26 06:18:21;;;;;;;10.27;1.93;;;;;;;8.09;100.00;102065.03;4866086;29;20455;-84
2022/01/26 06:20:49;;;;;;;7.97;3.40;;;;;;;8.17;100.00;102076.06;4864770;29;20450;-84
2022/01/26 06:23:16;;;;;;;6.93;2.03;;;;;;;8.19;100.00;102079.50;4884686;29;20453;-84
2022/01/26 06:25:44;;;;;;;9.77;3.13;;;;;;;8.15;100.00;102061.75;4869665;29;20460;-84
2022/01/26 06:28:15;;;;;;;7.43;2.30;;;;;;;8.23;100.00;102067.31;4865972;29;20819;-84
2022/01/26 06:30:45;;;;;;;3.00;2.13;;;;;;;8.24;100.00;102071.78;4880781;29;20450;-84
2022/01/26 06:33:13;;;;;;;7.40;2.20;;;;;;;8.27;100.00;102076.91;4865730;29;20461;-84
2022/01/26 06:35:41;;;;;;;5.50;1.80;;;;;;;8.24;100.00;102074.50;4880977;29;20564;-84
2022/01/26 06:38:09;;;;;;;5.10;2.80;;;;;;;8.26;100.00;102077.06;4881065;29;20446;-85
2022/01/26 06:40:40;;;;;;;5.70;2.80;;;;;;;8.20;100.00;102077.66;4868105;29;20435;-84
2022/01/26 06:43:12;;;;;;;3.70;2.60;;;;;;;8.20;100.00;102072.19;4882908;29;20467;-84
2022/01/26 06:45:49;;;;;;;6.90;2.53;;;;;;;8.20;100.00;102073.06;4868592;29;20528;-84
2022/01/26 06:51:06;;;;;;;15.50;7.03;;;;;;;8.23;100.00;102091.84;4882237;29;20454;-84
2022/01/26 06:53:34;;;;;;;27.53;13.60;;;;;;;8.16;100.00;102082.50;4881147;29;20538;-83
2022/01/26 06:56:02;;;;;;;68.50;35.80;;;;;;;8.21;100.00;102088.41;4876994;29;20492;-84
2022/01/26 06:58:30;;;;;;;60.47;29.97;;;;;;;8.18;100.00;102085.09;4865814;29;20442;-84
2022/01/26 07:00:58;;;;;;;37.40;20.40;;;;;;;8.22;100.00;102086.53;4897906;29;20811;-84
2022/01/26 07:03:26;;;;;;;64.63;32.47;;;;;;;8.19;100.00;102087.69;4868497;29;20545;-82
2022/01/26 07:05:55;;;;;;;17.13;8.80;;;;;;;8.25;100.00;102087.09;4866328;29;20515;-84
2022/01/26 07:08:23;;;;;;;41.27;23.37;;;;;;;8.23;100.00;102089.13;4880090;29;20439;-85
2022/01/26 07:10:53;;;;;;;30.73;11.40;;;;;;;8.27;100.00;102101.41;4861854;29;20522;-84
2022/01/26 07:13:23;;;;;;;16.13;8.27;;;;;;;8.29;100.00;102099.41;4895848;29;20860;-84
2022/01/26 07:22:07;;;;;;;11.53;5.80;;;;;;;8.31;100.00;102091.09;4885318;29;20450;-85
2022/01/26 07:25:00;;;;;;;10.00;4.37;;;;;;;8.27;100.00;102090.50;4909723;29;20491;-84
2022/01/26 07:27:28;;;;;;;9.60;5.10;;;;;;;8.24;100.00;102090.84;4928284;29;20453;-84
2022/01/26 07:29:58;;;;;;;7.70;3.67;;;;;;;8.22;100.00;102090.13;4906633;29;20447;-82
2022/01/26 07:32:29;;;;;;;6.93;3.17;;;;;;;8.20;100.00;102099.44;4890389;29;20434;-83
2022/01/26 07:34:57;;;;;;;8.97;2.87;;;;;;;8.18;100.00;102096.84;4880741;29;20554;-82
2022/01/26 07:37:25;;;;;;;26.30;15.07;;;;;;;8.12;100.00;102096.56;4868044;29;20481;-82
2022/01/26 07:40:06;;;;;;;8.20;5.80;;;;;;;8.09;100.00;102103.16;4898868;29;20453;-81
2022/01/26 07:42:35;;;;;;;6.43;3.70;;;;;;;7.94;100.00;102080.09;4884324;29;20441;-82
2022/01/26 07:45:04;;;;;;;10.70;4.93;;;;;;;8.05;100.00;102093.56;4898118;29;20449;-84
2022/01/26 07:47:33;;;;;;;11.00;4.27;;;;;;;8.05;100.00;102106.34;4868095;29;20469;-83
2022/01/26 07:50:05;;;;;;;11.63;4.57;;;;;;;7.95;100.00;102095.44;4883746;29;20794;-82
2022/01/26 07:52:38;;;;;;;12.50;5.10;;;;;;;7.90;100.00;102095.00;4909953;29;20452;-83
2022/01/26 07:55:07;;;;;;;15.00;5.10;;;;;;;7.98;100.00;102111.47;4908263;29;20947;-84
2022/01/26 07:57:35;;;;;;;13.03;4.67;;;;;;;7.93;100.00;102102.88;4903153;29;21078;-83
2022/01/26 08:00:04;;;;;;;18.63;3.77;;;;;;;7.89;100.00;102105.00;4902185;29;20449;-85
2022/01/26 08:02:31;;;;;;;9.77;3.93;;;;;;;7.91;100.00;102111.19;4901827;29;20508;-84
2022/01/26 08:05:01;;;;;;;40.10;8.50;;;;;;;7.92;100.00;102120.22;4901779;29;21205;-84
2022/01/26 08:07:29;;;;;;;33.43;5.90;;;;;;;7.89;100.00;102115.03;4918885;29;20867;-84
2022/01/26 08:09:59;;;;;;;32.93;4.73;;;;;;;7.88;100.00;102122.38;4900009;29;20952;-84
2022/01/26 08:12:28;;;;;;;47.87;5.90;;;;;;;7.84;100.00;102120.94;4898201;29;20517;-82
2022/01/26 08:15:16;;;;;;;25.33;5.47;;;;;;;7.83;100.00;102123.81;4874224;29;20449;-84
2022/01/26 08:17:45;;;;;;;30.83;5.40;;;;;;;7.83;100.00;102124.66;4867428;29;20489;-83
2022/01/26 08:20:12;;;;;;;37.93;5.77;;;;;;;7.85;100.00;102132.69;4905908;29;20529;-84
2022/01/26 08:22:43;;;;;;;55.60;7.43;;;;;;;7.84;100.00;102128.25;4891345;29;20923;-84
2022/01/26 08:25:13;;;;;;;46.10;6.57;;;;;;;7.90;100.00;102131.22;4912054;29;20999;-83
2022/01/26 08:27:42;;;;;;;53.37;7.50;;;;;;;7.94;100.00;102123.66;4915136;29;22263;-83
2022/01/26 08:30:14;;;;;;;39.47;5.37;;;;;;;7.90;100.00;102124.94;4900107;29;20449;-83
2022/01/26 08:32:42;;;;;;;32.63;6.47;;;;;;;7.93;100.00;102124.66;4900626;29;20524;-83
2022/01/26 08:35:11;;;;;;;23.73;4.17;;;;;;;8.02;100.00;102133.84;4887710;29;20453;-83
2022/01/26 08:37:39;;;;;;;31.40;5.50;;;;;;;8.02;100.00;102123.81;4878939;29;20485;-83
2022/01/26 08:40:10;;;;;;;38.20;6.00;;;;;;;8.05;100.00;102128.97;4878663;29;20641;-82
2022/01/26 08:42:37;;;;;;;33.63;8.83;;;;;;;8.11;100.00;102133.81;4910844;29;20449;-84
2022/01/26 08:45:06;;;;;;;33.93;8.60;;;;;;;8.16;100.00;102139.69;4896615;29;20437;-83
2022/01/26 08:47:33;;;;;;;31.10;7.53;;;;;;;8.25;100.00;102130.69;4899351;29;20485;-83
2022/01/26 08:50:01;;;;;;;50.80;7.80;;;;;;;8.32;100.00;102129.13;4899558;29;20444;-83
2022/01/26 08:52:28;;;;;;;44.10;7.40;;;;;;;8.42;100.00;102120.09;4884381;29;20429;-83
2022/01/26 08:54:56;;;;;;;34.57;7.90;;;;;;;8.57;100.00;102121.34;4884125;29;21011;-83
2022/01/26 08:57:24;;;;;;;36.80;7.47;;;;;;;8.70;100.00;102130.03;4914031;29;20485;-83
2022/01/26 08:59:52;;;;;;;40.43;5.97;;;;;;;8.79;100.00;102118.25;4899678;29;20459;-83
2022/01/26 09:02:20;;;;;;;42.10;10.30;;;;;;;8.92;100.00;102126.97;4914935;29;20863;-83
2022/01/26 09:04:48;;;;;;;51.00;15.63;;;;;;;9.14;100.00;102133.03;4900092;29;20441;-83
2022/01/26 09:07:20;;;;;;;43.23;17.90;;;;;;;9.28;100.00;102125.22;4911231;29;20452;-83
2022/01/26 09:09:48;;;;;;;40.80;13.20;;;;;;;9.45;100.00;102131.72;4886350;29;20953;-83
2022/01/26 09:12:17;;;;;;;30.20;10.90;;;;;;;9.57;100.00;102125.06;4876306;29;20451;-84
2022/01/26 09:14:46;;;;;;;32.33;10.17;;;;;;;9.62;100.00;102113.69;4865716;29;20801;-86
2022/01/26 09:17:15;;;;;;;25.40;9.27;;;;;;;9.87;100.00;102133.91;4880765;29;20489;-88
2022/01/26 09:19:44;;;;;;;21.53;7.90;;;;;;;9.98;100.00;102123.63;4882516;29;20433;-85
2022/01/26 09:22:19;;;;;;;20.60;6.30;;;;;;;10.13;100.00;102113.00;4865857;29;20477;-88
2022/01/26 09:24:47;;;;;;;11.43;3.63;;;;;;;10.36;100.00;102116.97;4864776;29;20881;-88
2022/01/26 09:27:17;;;;;;;7.13;2.80;;;;;;;10.64;100.00;102114.09;4883535;29;20579;-88
2022/01/26 09:29:46;;;;;;;13.23;3.30;;;;;;;10.94;100.00;102118.22;4882426;29;20537;-88
2022/01/26 09:32:14;;;;;;;9.37;3.03;;;;;;;11.16;100.00;102103.94;4866239;29;20537;-84
2022/01/26 09:34:43;;;;;;;8.73;3.60;;;;;;;11.36;99.71;102110.88;4866965;29;20473;-85
2022/01/26 09:37:13;;;;;;;11.00;2.70;;;;;;;11.70;99.02;102118.19;4880139;29;20482;-83
2022/01/26 09:39:41;;;;;;;7.20;3.10;;;;;;;11.92;95.99;102113.97;4898315;29;20449;-85
2022/01/26 09:42:09;;;;;;;10.40;3.10;;;;;;;12.15;94.57;102117.75;4856769;29;20454;-84
2022/01/26 09:44:38;;;;;;;5.90;1.80;;;;;;;12.29;91.80;102118.97;4878536;29;20442;-84
2022/01/26 09:47:06;;;;;;;10.23;2.37;;;;;;;12.44;91.30;102123.59;4881502;29;20445;-85
2022/01/26 09:49:35;;;;;;;5.50;2.50;;;;;;;12.48;89.93;102112.28;4862900;29;20511;-84
2022/01/26 09:52:13;;;;;;;4.63;2.23;;;;;;;12.58;89.06;102124.75;4878051;29;20454;-84
2022/01/26 09:54:44;;;;;;;6.90;2.30;;;;;;;12.64;89.42;102125.97;4860339;29;20454;-83
2022/01/26 09:57:26;;;;;;;6.30;2.10;;;;;;;12.70;89.01;102128.03;4878491;29;20494;-83
2022/01/26 09:59:54;;;;;;;9.30;2.47;;;;;;;12.76;88.40;102135.53;4853754;29;20465;-83
2022/01/26 10:02:33;;;;;;;12.83;2.03;;;;;;;12.81;88.24;102133.13;4896132;29;20449;-84
2022/01/26 10:05:10;;;;;;;10.60;1.93;;;;;;;12.86;88.07;102122.50;4863396;29;20457;-83
2022/01/26 10:08:11;;;;;;;6.00;2.33;;;;;;;12.91;87.24;102136.53;4848039;29;20458;-83
2022/01/26 10:16:22;;;;;;;12.13;2.23;;;;;;;13.14;87.77;102136.66;4877739;29;20447;-84
2022/01/26 10:18:50;;;;;;;6.03;2.60;;;;;;;13.28;86.73;102127.69;4902250;29;20805;-84
2022/01/26 10:21:40;;;;;;;10.30;2.37;;;;;;;13.51;86.52;102137.91;4885692;29;20459;-96
2022/01/26 10:24:08;;;;;;;7.03;2.53;;;;;;;13.64;85.46;102139.06;4870563;29;20474;-85
2022/01/26 10:26:37;;;;;;;12.40;2.63;;;;;;;13.72;84.99;102130.75;4861328;29;20806;-86
2022/01/26 10:29:05;;;;;;;8.83;2.63;;;;;;;13.73;84.06;102134.34;4859478;29;20469;-85
2022/01/26 10:31:39;;;;;;;5.87;2.87;;;;;;;13.74;83.64;102145.16;4862228;29;20472;-86
2022/01/26 10:34:18;;;;;;;8.60;3.00;;;;;;;13.70;82.38;102141.06;4859544;29;20470;-86
2022/01/26 10:36:50;;;;;;;9.93;2.30;;;;;;;13.67;83.26;102132.31;4881013;29;20481;-87
2022/01/26 10:39:38;;;;;;;9.90;2.90;;;;;;;13.81;83.17;102135.19;4881590;29;20484;-86
2022/01/26 10:42:12;;;;;;;13.67;2.20;;;;;;;13.99;82.30;102131.28;4869496;29;20446;-87
2022/01/26 10:44:47;;;;;;;8.50;2.50;;;;;;;14.05;82.46;102128.63;4887989;29;20532;-86
2022/01/26 10:47:31;;;;;;;9.67;2.57;;;;;;;14.27;82.12;102137.94;4870563;29;20516;-86
2022/01/26 10:50:31;;;;;;;8.03;3.07;;;;;;;14.30;81.54;102131.22;4869479;29;20493;-86
2022/01/26 10:53:08;;;;;;;10.37;2.20;;;;;;;14.42;81.30;102144.41;4900762;29;20568;-85
2022/01/26 10:55:36;;;;;;;12.40;2.17;;;;;;;14.39;80.17;102130.97;4863709;29;22506;-85
2022/01/26 10:58:07;;;;;;;9.10;2.33;;;;;;;14.57;80.69;102141.69;4871364;29;20529;-85
2022/01/26 11:00:38;;;;;;;10.27;2.40;;;;;;;14.72;80.61;102144.47;4888294;29;20796;-85
2022/01/26 11:03:06;;;;;;;10.20;2.60;;;;;;;14.86;79.92;102138.13;4891258;29;20464;-85
2022/01/26 11:05:35;;;;;;;9.60;1.80;;;;;;;14.94;79.07;102140.78;4870503;29;20533;-84
2022/01/26 11:08:03;;;;;;;5.20;1.80;;;;;;;15.05;78.70;102137.56;4881030;29;20509;-84
2022/01/26 11:10:35;;;;;;;8.53;2.30;;;;;;;15.13;77.95;102129.22;4871891;29;20538;-84
2022/01/26 11:13:04;;;;;;;18.07;3.07;;;;;;;15.21;76.20;102129.09;4896126;29;20487;-85
2022/01/26 11:15:32;;;;;;;8.67;2.37;;;;;;;15.31;75.92;102133.50;4880291;29;20455;-84
2022/01/26 11:18:10;;;;;;;7.77;2.10;;;;;;;15.35;75.75;102132.91;4894886;29;21020;-85
2022/01/26 11:20:49;;;;;;;8.13;2.47;;;;;;;15.39;75.61;102116.88;4880304;29;20450;-86
2022/01/26 11:23:36;;;;;;;8.50;2.00;;;;;;;15.53;75.48;102118.75;4897426;29;20473;-85
2022/01/26 11:26:05;;;;;;;13.10;2.17;;;;;;;15.66;75.99;102101.53;4883374;29;20457;-84
2022/01/26 11:28:33;;;;;;;8.73;2.40;;;;;;;15.80;75.17;102104.25;4899641;29;20548;-85
2022/01/26 11:31:04;;;;;;;9.30;2.27;;;;;;;15.89;74.14;102105.84;4882194;29;20847;-84
2022/01/26 11:33:34;;;;;;;9.23;2.37;;;;;;;16.04;74.32;102107.69;4860631;29;20453;-84
2022/01/26 11:36:02;;;;;;;6.33;2.00;;;;;;;16.11;74.39;102100.34;4879739;29;20462;-84
2022/01/26 11:47:20;;;;;;;8.87;2.20;;;;;;;16.39;71.52;102090.19;4867140;29;20459;-84
2022/01/26 11:49:51;;;;;;;8.27;1.80;;;;;;;16.47;71.70;102089.19;4879865;29;20880;-85
2022/01/26 11:52:35;;;;;;;11.27;2.37;;;;;;;16.47;70.72;102092.81;4864376;29;20454;-85
2022/01/26 11:55:32;;;;;;;14.93;2.40;;;;;;;16.60;70.00;102097.56;4877233;29;20967;-86
2022/01/26 11:58:11;;;;;;;10.23;2.27;;;;;;;16.69;69.80;102082.63;4891525;29;20489;-85
2022/01/26 12:00:58;;;;;;;6.80;2.50;;;;;;;16.88;70.45;102086.56;4867194;29;20465;-86
2022/01/26 12:03:30;;;;;;;15.27;2.13;;;;;;;16.90;69.24;102073.41;4870712;29;20501;-85
2022/01/26 12:05:59;;;;;;;9.00;2.07;;;;;;;16.98;69.16;102078.75;4870594;29;20529;-86
2022/01/26 12:08:38;;;;;;;25.43;4.57;;;;;;;17.18;69.49;102076.09;4868673;29;20450;-85
2022/01/26 12:11:15;;;;;;;13.90;3.57;;;;;;;17.32;68.72;102069.56;4882524;29;20446;-85
2022/01/26 12:13:45;;;;;;;10.67;2.63;;;;;;;17.56;68.63;102065.41;4864716;29;20466;-85
2022/01/26 12:16:23;;;;;;;16.17;2.13;;;;;;;17.62;67.19;102053.53;4897333;29;20498;-85
2022/01/26 12:19:08;;;;;;;9.70;2.60;;;;;;;17.70;66.12;102071.91;4883950;29;20486;-85
2022/01/26 12:43:43;;;;;;;10.27;2.37;;;;;;;18.59;62.20;102028.97;4873473;29;20463;-86
2022/01/26 12:46:18;;;;;;;8.10;2.43;;;;;;;18.63;62.67;102026.63;4887722;29;20467;-86
2022/01/26 12:48:53;;;;;;;8.50;1.97;;;;;;;18.51;61.58;102025.53;4864783;29;20462;-86
2022/01/26 12:51:21;;;;;;;9.13;2.63;;;;;;;18.29;61.88;102016.59;4863082;29;20465;-85
2022/01/26 12:54:01;;;;;;;16.93;2.93;;;;;;;18.24;62.66;102024.72;4874826;29;20816;-85
2022/01/26 12:56:35;;;;;;;19.70;2.73;;;;;;;18.26;63.57;102017.06;4863622;29;20453;-85
2022/01/26 12:59:12;;;;;;;8.70;2.83;;;;;;;18.16;64.06;101997.25;4882448;29;20866;-86
2022/01/26 13:01:44;;;;;;;12.60;3.47;;;;;;;18.29;64.33;102011.91;4865266;29;20454;-86
2022/01/26 13:04:15;;;;;;;17.60;6.87;;;;;;;18.22;65.73;101999.16;4865391;29;20461;-86
2022/01/26 13:06:51;;;;;;;13.67;3.10;;;;;;;18.24;67.34;102019.19;4862189;29;20450;-85
2022/01/26 13:09:37;;;;;;;12.40;3.37;;;;;;;18.15;67.76;102009.38;4865487;29;20462;-85
2022/01/26 13:12:05;;;;;;;11.50;3.33;;;;;;;18.06;68.69;101999.59;4905561;29;20463;-86
2022/01/26 13:14:44;;;;;;;12.53;4.77;;;;;;;18.08;69.32;101994.72;4848589;29;20514;-89
2022/01/26 13:19:58;;;;;;;15.97;3.50;;;;;;;18.10;70.62;101995.31;4884952;29;20474;-86
2022/01/26 13:28:37;;;;;;;10.03;2.90;;;;;;;17.97;71.48;101996.19;4884714;29;21009;-86
2022/01/26 13:31:47;;;;;;;12.10;3.10;;;;;;;17.89;72.09;101988.97;4872379;29;20549;-85
2022/01/26 13:37:08;;;;;;;9.60;2.90;;;;;;;17.88;74.35;101984.50;4879076;29;20446;-86
2022/01/26 14:35:13;;;;;;;14.73;4.60;;;;;;;18.32;71.28;101926.75;4916274;29;20457;-88
2022/01/26 14:52:05;;;;;;;14.10;4.53;;;;;;;19.40;67.39;101894.56;4893351;29;20455;-88
2022/01/26 15:00:13;;;;;;;30.97;14.10;;;;;;;19.73;65.61;101900.72;4904874;29;20459;-89
2022/01/26 15:35:28;;;;;;;11.60;2.90;;;;;;;17.86;69.23;101900.03;4886772;29;20530;-87
2022/01/26 15:48:51;;;;;;;12.60;2.63;;;;;;;17.62;70.34;101901.47;4904647;29;20513;-87
2022/01/26 17:47:01;;;;;;;12.27;2.70;;;;;;;15.33;80.03;101911.88;4836180;29;20440;-86
2022/01/26 18:15:19;;;;;;;13.00;4.07;;;;;;;14.52;85.82;101924.88;4866066;29;20482;-86
2022/01/26 18:50:47;;;;;;;13.20;4.60;;;;;;;14.01;87.81;101937.66;4852803;29;20947;-86
2022/01/26 18:53:17;;;;;;;17.20;4.57;;;;;;;13.86;87.92;101923.00;4867091;29;20529;-87
2022/01/26 18:55:45;;;;;;;15.37;3.77;;;;;;;13.82;88.84;101925.28;4883694;29;20454;-85